Аэропорт: Габала. Габала

ICAO: UBBQ

METAR:
2024-05-18 17:00:00
UBBQ 181700Z 12004KT 9999 FEW040CB BKN060 11/08 Q1021 NOSIG RMK MT PT OBSC
TAF:
Информация по данной станции не доступна